sensor_id;sensor_type;location;lat;lon;timestamp;temperature;humidity
2453;DHT22;63678;47.994;7.854;2023-06-14T00:00:27;17.70;72.50
2453;DHT22;63678;47.994;7.854;2023-06-14T00:03:00;17.60;70.30
2453;DHT22;63678;47.994;7.854;2023-06-14T00:05:33;17.10;71.30
2453;DHT22;63678;47.994;7.854;2023-06-14T00:08:10;17.40;71.60
2453;DHT22;63678;47.994;7.854;2023-06-14T00:10:42;17.20;72.30
2453;DHT22;63678;47.994;7.854;2023-06-14T00:13:15;17.30;71.80
2453;DHT22;63678;47.994;7.854;2023-06-14T00:15:47;17.20;73.50
2453;DHT22;63678;47.994;7.854;2023-06-14T00:18:20;16.60;73.20
2453;DHT22;63678;47.994;7.854;2023-06-14T00:20:56;17.30;72.50
2453;DHT22;63678;47.994;7.854;2023-06-14T00:23:28;17.40;72.90
2453;DHT22;63678;47.994;7.854;2023-06-14T00:26:01;17.40;72.90
2453;DHT22;63678;47.994;7.854;2023-06-14T00:31:06;16.80;73.50
2453;DHT22;63678;47.994;7.854;2023-06-14T00:33:39;16.10;73.70
2453;DHT22;63678;47.994;7.854;2023-06-14T00:36:11;16.50;75.20
2453;DHT22;63678;47.994;7.854;2023-06-14T00:38:44;16.40;74.60
2453;DHT22;63678;47.994;7.854;2023-06-14T00:41:16;16.60;74.20
2453;DHT22;63678;47.994;7.854;2023-06-14T00:43:48;16.70;75.10
2453;DHT22;63678;47.994;7.854;2023-06-14T00:46:20;16.20;75.90
2453;DHT22;63678;47.994;7.854;2023-06-14T00:48:55;16.50;75.60
2453;DHT22;63678;47.994;7.854;2023-06-14T00:51:29;16.40;75.60
2453;DHT22;63678;47.994;7.854;2023-06-14T00:56:36;16.20;76.30
2453;DHT22;63678;47.994;7.854;2023-06-14T00:59:09;15.70;76.70
2453;DHT22;63678;47.994;7.854;2023-06-14T01:01:43;16.10;77.60
2453;DHT22;63678;47.994;7.854;2023-06-14T01:04:15;15.90;77.50
2453;DHT22;63678;47.994;7.854;2023-06-14T01:07:11;15.70;79.40
2453;DHT22;63678;47.994;7.854;2023-06-14T01:12:46;15.70;78.00
2453;DHT22;63678;47.994;7.854;2023-06-14T01:15:23;16.00;78.90
2453;DHT22;63678;47.994;7.854;2023-06-14T01:20:35;16.10;77.90
2453;DHT22;63678;47.994;7.854;2023-06-14T01:23:10;15.90;76.30
2453;DHT22;63678;47.994;7.854;2023-06-14T01:25:44;16.30;76.80
2453;DHT22;63678;47.994;7.854;2023-06-14T01:28:17;16.20;77.40
2453;DHT22;63678;47.994;7.854;2023-06-14T01:30:53;16.50;76.10
2453;DHT22;63678;47.994;7.854;2023-06-14T01:33:27;16.40;75.30
2453;DHT22;63678;47.994;7.854;2023-06-14T01:36:02;16.10;76.20
2453;DHT22;63678;47.994;7.854;2023-06-14T01:38:37;16.20;77.10
2453;DHT22;63678;47.994;7.854;2023-06-14T01:41:10;16.40;76.70
2453;DHT22;63678;47.994;7.854;2023-06-14T01:46:16;16.30;76.90
2453;DHT22;63678;47.994;7.854;2023-06-14T01:48:49;16.30;76.50
2453;DHT22;63678;47.994;7.854;2023-06-14T01:51:21;16.30;76.70
2453;DHT22;63678;47.994;7.854;2023-06-14T01:53:54;16.00;76.60
2453;DHT22;63678;47.994;7.854;2023-06-14T01:59:00;16.20;76.10
2453;DHT22;63678;47.994;7.854;2023-06-14T02:01:33;16.60;77.10
2453;DHT22;63678;47.994;7.854;2023-06-14T02:04:06;16.90;76.90
2453;DHT22;63678;47.994;7.854;2023-06-14T02:06:39;16.70;76.50
2453;DHT22;63678;47.994;7.854;2023-06-14T02:09:11;16.90;77.90
2453;DHT22;63678;47.994;7.854;2023-06-14T02:11:43;16.60;76.10
2453;DHT22;63678;47.994;7.854;2023-06-14T02:16:50;17.10;76.00
2453;DHT22;63678;47.994;7.854;2023-06-14T02:19:23;16.70;74.50
2453;DHT22;63678;47.994;7.854;2023-06-14T02:24:28;16.70;75.80
2453;DHT22;63678;47.994;7.854;2023-06-14T02:27:01;15.40;77.60
2453;DHT22;63678;47.994;7.854;2023-06-14T02:29:34;14.80;80.60
2453;DHT22;63678;47.994;7.854;2023-06-14T02:32:08;14.40;82.70
2453;DHT22;63678;47.994;7.854;2023-06-14T02:34:40;14.20;82.90
2453;DHT22;63678;47.994;7.854;2023-06-14T02:37:13;14.00;83.60
2453;DHT22;63678;47.994;7.854;2023-06-14T02:39:45;13.90;83.60
2453;DHT22;63678;47.994;7.854;2023-06-14T02:44:51;13.90;83.80
2453;DHT22;63678;47.994;7.854;2023-06-14T02:47:25;14.00;83.20
2453;DHT22;63678;47.994;7.854;2023-06-14T02:49:58;14.10;83.00
2453;DHT22;63678;47.994;7.854;2023-06-14T02:52:30;14.10;82.80
2453;DHT22;63678;47.994;7.854;2023-06-14T02:55:05;14.20;82.70
2453;DHT22;63678;47.994;7.854;2023-06-14T02:57:38;14.00;82.80
2453;DHT22;63678;47.994;7.854;2023-06-14T03:00:13;14.10;82.60
2453;DHT22;63678;47.994;7.854;2023-06-14T03:05:23;13.70;85.10
2453;DHT22;63678;47.994;7.854;2023-06-14T03:07:56;13.60;86.10
2453;DHT22;63678;47.994;7.854;2023-06-14T03:10:29;13.50;85.70
2453;DHT22;63678;47.994;7.854;2023-06-14T03:13:03;13.70;84.00
2453;DHT22;63678;47.994;7.854;2023-06-14T03:15:35;13.80;84.20
2453;DHT22;63678;47.994;7.854;2023-06-14T03:18:09;13.80;84.40
2453;DHT22;63678;47.994;7.854;2023-06-14T03:20:41;13.80;83.90
2453;DHT22;63678;47.994;7.854;2023-06-14T03:23:14;14.00;83.60
2453;DHT22;63678;47.994;7.854;2023-06-14T03:28:20;13.80;84.00
2453;DHT22;63678;47.994;7.854;2023-06-14T03:30:53;14.00;85.90
2453;DHT22;63678;47.994;7.854;2023-06-14T03:33:26;15.00;83.60
2453;DHT22;63678;47.994;7.854;2023-06-14T03:36:00;15.00;84.20
2453;DHT22;63678;47.994;7.854;2023-06-14T03:41:08;15.20;82.20
2453;DHT22;63678;47.994;7.854;2023-06-14T03:43:42;15.20;81.50
2453;DHT22;63678;47.994;7.854;2023-06-14T03:48:48;15.00;83.00
2453;DHT22;63678;47.994;7.854;2023-06-14T03:51:21;15.00;80.80
2453;DHT22;63678;47.994;7.854;2023-06-14T03:53:54;15.60;79.60
2453;DHT22;63678;47.994;7.854;2023-06-14T03:56:48;15.30;81.30
2453;DHT22;63678;47.994;7.854;2023-06-14T04:01:54;15.60;81.90
2453;DHT22;63678;47.994;7.854;2023-06-14T04:04:27;15.80;81.00
2453;DHT22;63678;47.994;7.854;2023-06-14T04:12:09;14.30;84.20
2453;DHT22;63678;47.994;7.854;2023-06-14T04:14:46;13.90;85.80
2453;DHT22;63678;47.994;7.854;2023-06-14T04:17:18;13.80;86.00
2453;DHT22;63678;47.994;7.854;2023-06-14T04:22:24;14.00;85.90
2453;DHT22;63678;47.994;7.854;2023-06-14T04:25:02;13.90;85.90
2453;DHT22;63678;47.994;7.854;2023-06-14T04:27:37;13.80;85.60
2453;DHT22;63678;47.994;7.854;2023-06-14T04:30:11;13.90;86.20
2453;DHT22;63678;47.994;7.854;2023-06-14T04:32:50;13.90;86.20
2453;DHT22;63678;47.994;7.854;2023-06-14T04:35:26;14.00;85.40
2453;DHT22;63678;47.994;7.854;2023-06-14T04:38:05;14.00;85.70
2453;DHT22;63678;47.994;7.854;2023-06-14T04:40:42;14.10;85.60
2453;DHT22;63678;47.994;7.854;2023-06-14T04:43:20;14.10;85.70
2453;DHT22;63678;47.994;7.854;2023-06-14T04:48:35;14.30;85.30
2453;DHT22;63678;47.994;7.854;2023-06-14T04:51:09;14.30;84.80
2453;DHT22;63678;47.994;7.854;2023-06-14T04:53:42;14.30;84.50
2453;DHT22;63678;47.994;7.854;2023-06-14T04:56:16;14.30;86.00
2453;DHT22;63678;47.994;7.854;2023-06-14T04:58:49;14.30;85.90
2453;DHT22;63678;47.994;7.854;2023-06-14T05:06:29;14.30;86.90
2453;DHT22;63678;47.994;7.854;2023-06-14T05:11:35;14.40;86.90
2453;DHT22;63678;47.994;7.854;2023-06-14T05:14:08;14.50;86.20
2453;DHT22;63678;47.994;7.854;2023-06-14T05:16:41;14.60;86.20
2453;DHT22;63678;47.994;7.854;2023-06-14T05:19:15;14.80;85.10
2453;DHT22;63678;47.994;7.854;2023-06-14T05:21:50;15.00;83.40
2453;DHT22;63678;47.994;7.854;2023-06-14T05:24:23;15.20;82.70
2453;DHT22;63678;47.994;7.854;2023-06-14T05:26:56;15.30;82.70
2453;DHT22;63678;47.994;7.854;2023-06-14T05:29:29;15.50;80.30
2453;DHT22;63678;47.994;7.854;2023-06-14T05:34:35;15.80;81.40
2453;DHT22;63678;47.994;7.854;2023-06-14T05:37:07;15.90;82.20
2453;DHT22;63678;47.994;7.854;2023-06-14T05:39:40;15.80;82.20
2453;DHT22;63678;47.994;7.854;2023-06-14T05:42:12;15.90;83.00
2453;DHT22;63678;47.994;7.854;2023-06-14T05:47:18;16.00;81.90
2453;DHT22;63678;47.994;7.854;2023-06-14T05:49:50;16.20;82.10
2453;DHT22;63678;47.994;7.854;2023-06-14T05:52:23;16.40;82.50
2453;DHT22;63678;47.994;7.854;2023-06-14T05:54:55;16.70;81.80
2453;DHT22;63678;47.994;7.854;2023-06-14T05:57:29;16.80;82.50
2453;DHT22;63678;47.994;7.854;2023-06-14T06:00:01;16.70;82.80
2453;DHT22;63678;47.994;7.854;2023-06-14T06:05:36;16.80;81.70
2453;DHT22;63678;47.994;7.854;2023-06-14T06:08:08;16.90;81.80
2453;DHT22;63678;47.994;7.854;2023-06-14T06:10:41;17.10;84.00
2453;DHT22;63678;47.994;7.854;2023-06-14T06:13:13;17.10;83.60
2453;DHT22;63678;47.994;7.854;2023-06-14T06:18:20;17.10;84.40
2453;DHT22;63678;47.994;7.854;2023-06-14T06:20:53;17.20;84.60
2453;DHT22;63678;47.994;7.854;2023-06-14T06:25:58;17.90;86.50
2453;DHT22;63678;47.994;7.854;2023-06-14T06:28:53;18.50;85.30
2453;DHT22;63678;47.994;7.854;2023-06-14T06:31:25;18.90;83.70
2453;DHT22;63678;47.994;7.854;2023-06-14T06:34:00;20.50;79.50
2453;DHT22;63678;47.994;7.854;2023-06-14T06:36:32;22.40;73.80
2453;DHT22;63678;47.994;7.854;2023-06-14T06:39:05;24.00;70.60
2453;DHT22;63678;47.994;7.854;2023-06-14T06:41:42;25.20;67.60
2453;DHT22;63678;47.994;7.854;2023-06-14T06:44:15;25.20;67.20
2453;DHT22;63678;47.994;7.854;2023-06-14T06:46:53;25.20;66.70
2453;DHT22;63678;47.994;7.854;2023-06-14T06:49:26;25.40;66.60
2453;DHT22;63678;47.994;7.854;2023-06-14T06:52:04;25.20;66.60
2453;DHT22;63678;47.994;7.854;2023-06-14T06:54:39;25.30;66.80
2453;DHT22;63678;47.994;7.854;2023-06-14T07:00:08;25.30;66.60
2453;DHT22;63678;47.994;7.854;2023-06-14T07:02:42;25.20;66.70
2453;DHT22;63678;47.994;7.854;2023-06-14T07:05:15;25.40;66.60
2453;DHT22;63678;47.994;7.854;2023-06-14T07:07:47;24.90;66.50
2453;DHT22;63678;47.994;7.854;2023-06-14T07:10:20;25.00;66.40
2453;DHT22;63678;47.994;7.854;2023-06-14T07:12:54;25.20;66.10
2453;DHT22;63678;47.994;7.854;2023-06-14T07:15:27;25.20;66.60
2453;DHT22;63678;47.994;7.854;2023-06-14T07:18:00;25.00;65.70
2453;DHT22;63678;47.994;7.854;2023-06-14T07:20:33;25.20;65.60
2453;DHT22;63678;47.994;7.854;2023-06-14T07:23:08;25.70;65.40
2453;DHT22;63678;47.994;7.854;2023-06-14T07:25:40;26.10;65.20
2453;DHT22;63678;47.994;7.854;2023-06-14T07:28:17;25.40;66.40
2453;DHT22;63678;47.994;7.854;2023-06-14T07:30:50;25.50;66.80
2453;DHT22;63678;47.994;7.854;2023-06-14T07:33:24;25.60;65.90
2453;DHT22;63678;47.994;7.854;2023-06-14T07:35:57;25.50;65.30
2453;DHT22;63678;47.994;7.854;2023-06-14T07:38:30;25.50;65.50
2453;DHT22;63678;47.994;7.854;2023-06-14T07:41:03;26.20;63.90
2453;DHT22;63678;47.994;7.854;2023-06-14T07:43:39;26.00;63.00
2453;DHT22;63678;47.994;7.854;2023-06-14T07:46:12;26.10;63.40
2453;DHT22;63678;47.994;7.854;2023-06-14T07:48:45;26.60;63.00
2453;DHT22;63678;47.994;7.854;2023-06-14T07:51:37;26.50;63.20
2453;DHT22;63678;47.994;7.854;2023-06-14T07:54:11;26.50;63.10
2453;DHT22;63678;47.994;7.854;2023-06-14T07:56:45;26.90;62.50
2453;DHT22;63678;47.994;7.854;2023-06-14T07:59:18;26.90;62.80
2453;DHT22;63678;47.994;7.854;2023-06-14T08:01:52;26.80;62.20
2453;DHT22;63678;47.994;7.854;2023-06-14T08:04:26;26.80;62.70
2453;DHT22;63678;47.994;7.854;2023-06-14T08:07:00;26.90;63.00
2453;DHT22;63678;47.994;7.854;2023-06-14T08:09:33;27.10;61.40
2453;DHT22;63678;47.994;7.854;2023-06-14T08:12:06;27.70;60.90
2453;DHT22;63678;47.994;7.854;2023-06-14T08:14:42;27.70;61.40
2453;DHT22;63678;47.994;7.854;2023-06-14T08:17:36;28.00;61.90
2453;DHT22;63678;47.994;7.854;2023-06-14T08:20:09;28.20;61.30
2453;DHT22;63678;47.994;7.854;2023-06-14T08:23:03;27.60;62.60
2453;DHT22;63678;47.994;7.854;2023-06-14T08:25:37;27.30;63.20
2453;DHT22;63678;47.994;7.854;2023-06-14T08:28:10;27.30;63.90
2453;DHT22;63678;47.994;7.854;2023-06-14T08:30:43;28.30;63.90
2453;DHT22;63678;47.994;7.854;2023-06-14T08:33:21;27.90;63.40
2453;DHT22;63678;47.994;7.854;2023-06-14T08:35:53;27.80;64.70
2453;DHT22;63678;47.994;7.854;2023-06-14T08:38:26;27.90;65.10
2453;DHT22;63678;47.994;7.854;2023-06-14T08:40:59;28.80;64.70
2453;DHT22;63678;47.994;7.854;2023-06-14T08:46:07;28.30;64.80
2453;DHT22;63678;47.994;7.854;2023-06-14T08:48:43;28.30;64.60
2453;DHT22;63678;47.994;7.854;2023-06-14T08:51:18;28.50;64.70
2453;DHT22;63678;47.994;7.854;2023-06-14T08:54:15;28.50;65.10
2453;DHT22;63678;47.994;7.854;2023-06-14T08:56:48;28.20;65.10
2453;DHT22;63678;47.994;7.854;2023-06-14T08:59:27;28.20;65.70
2453;DHT22;63678;47.994;7.854;2023-06-14T09:02:01;29.10;64.40
2453;DHT22;63678;47.994;7.854;2023-06-14T09:04:44;29.60;63.40
2453;DHT22;63678;47.994;7.854;2023-06-14T09:07:17;29.30;63.80
2453;DHT22;63678;47.994;7.854;2023-06-14T09:09:49;29.20;64.20
2453;DHT22;63678;47.994;7.854;2023-06-14T09:12:41;28.40;65.20
2453;DHT22;63678;47.994;7.854;2023-06-14T09:17:48;28.50;65.50
2453;DHT22;63678;47.994;7.854;2023-06-14T09:20:24;29.40;63.30
2453;DHT22;63678;47.994;7.854;2023-06-14T09:22:58;29.10;63.40
2453;DHT22;63678;47.994;7.854;2023-06-14T09:25:45;29.50;62.70
2453;DHT22;63678;47.994;7.854;2023-06-14T09:28:19;28.50;63.60
2453;DHT22;63678;47.994;7.854;2023-06-14T09:30:54;28.40;63.90
2453;DHT22;63678;47.994;7.854;2023-06-14T09:33:27;28.80;63.80
2453;DHT22;63678;47.994;7.854;2023-06-14T09:36:02;28.70;63.10
2453;DHT22;63678;47.994;7.854;2023-06-14T09:38:35;28.80;62.20
2453;DHT22;63678;47.994;7.854;2023-06-14T09:41:07;29.30;62.10
2453;DHT22;63678;47.994;7.854;2023-06-14T09:43:40;29.60;62.30
2453;DHT22;63678;47.994;7.854;2023-06-14T09:46:12;28.70;62.60
2453;DHT22;63678;47.994;7.854;2023-06-14T09:48:45;29.00;62.10
2453;DHT22;63678;47.994;7.854;2023-06-14T09:51:18;28.80;62.50
2453;DHT22;63678;47.994;7.854;2023-06-14T09:53:55;29.10;61.50
2453;DHT22;63678;47.994;7.854;2023-06-14T09:56:41;30.00;60.70
2453;DHT22;63678;47.994;7.854;2023-06-14T09:59:21;29.80;61.00
2453;DHT22;63678;47.994;7.854;2023-06-14T10:02:00;29.60;59.30
2453;DHT22;63678;47.994;7.854;2023-06-14T10:04:40;29.60;60.20
2453;DHT22;63678;47.994;7.854;2023-06-14T10:07:19;29.30;60.50
2453;DHT22;63678;47.994;7.854;2023-06-14T10:09:53;29.40;60.20
2453;DHT22;63678;47.994;7.854;2023-06-14T10:14:58;29.50;60.40
2453;DHT22;63678;47.994;7.854;2023-06-14T10:17:50;29.50;60.90
2453;DHT22;63678;47.994;7.854;2023-06-14T10:20:40;29.40;60.50
2453;DHT22;63678;47.994;7.854;2023-06-14T10:23:23;29.20;60.90
2453;DHT22;63678;47.994;7.854;2023-06-14T10:25:57;29.20;60.60
2453;DHT22;63678;47.994;7.854;2023-06-14T10:28:29;29.10;60.80
2453;DHT22;63678;47.994;7.854;2023-06-14T10:31:07;28.90;60.10
2453;DHT22;63678;47.994;7.854;2023-06-14T10:39:17;29.10;60.30
2453;DHT22;63678;47.994;7.854;2023-06-14T10:41:54;29.70;60.90
2453;DHT22;63678;47.994;7.854;2023-06-14T10:44:32;29.70;60.20
2453;DHT22;63678;47.994;7.854;2023-06-14T10:47:31;29.70;59.90
2453;DHT22;63678;47.994;7.854;2023-06-14T10:50:11;29.30;59.70
2453;DHT22;63678;47.994;7.854;2023-06-14T10:52:46;29.20;60.00
2453;DHT22;63678;47.994;7.854;2023-06-14T10:55:18;29.20;59.00
2453;DHT22;63678;47.994;7.854;2023-06-14T10:57:55;29.20;58.80
2453;DHT22;63678;47.994;7.854;2023-06-14T11:00:33;28.80;58.80
2453;DHT22;63678;47.994;7.854;2023-06-14T11:06:15;29.20;58.70
2453;DHT22;63678;47.994;7.854;2023-06-14T11:09:12;29.20;58.80
2453;DHT22;63678;47.994;7.854;2023-06-14T11:12:12;29.50;59.20
2453;DHT22;63678;47.994;7.854;2023-06-14T11:14:48;29.10;59.30
2453;DHT22;63678;47.994;7.854;2023-06-14T11:17:20;29.00;58.90
2453;DHT22;63678;47.994;7.854;2023-06-14T11:20:13;29.00;59.40
2453;DHT22;63678;47.994;7.854;2023-06-14T11:22:53;29.20;59.60
2453;DHT22;63678;47.994;7.854;2023-06-14T11:25:26;29.30;59.30
2453;DHT22;63678;47.994;7.854;2023-06-14T11:30:32;29.30;59.60
2453;DHT22;63678;47.994;7.854;2023-06-14T11:33:09;29.40;59.10
2453;DHT22;63678;47.994;7.854;2023-06-14T11:35:42;29.10;59.40
2453;DHT22;63678;47.994;7.854;2023-06-14T11:38:14;29.00;59.60
2453;DHT22;63678;47.994;7.854;2023-06-14T11:40:46;29.30;59.40
2453;DHT22;63678;47.994;7.854;2023-06-14T11:43:19;29.80;59.20
2453;DHT22;63678;47.994;7.854;2023-06-14T11:45:52;29.10;58.90
2453;DHT22;63678;47.994;7.854;2023-06-14T11:48:42;29.20;59.00
2453;DHT22;63678;47.994;7.854;2023-06-14T11:53:47;29.20;58.60
2453;DHT22;63678;47.994;7.854;2023-06-14T11:56:19;29.30;58.80
2453;DHT22;63678;47.994;7.854;2023-06-14T11:58:52;29.10;58.90
2453;DHT22;63678;47.994;7.854;2023-06-14T12:01:30;28.90;59.50
2453;DHT22;63678;47.994;7.854;2023-06-14T12:04:03;28.70;59.50
2453;DHT22;63678;47.994;7.854;2023-06-14T12:06:35;29.00;59.50
2453;DHT22;63678;47.994;7.854;2023-06-14T12:09:12;28.60;59.50
2453;DHT22;63678;47.994;7.854;2023-06-14T12:12:00;28.50;59.70
2453;DHT22;63678;47.994;7.854;2023-06-14T12:14:35;28.70;60.00
2453;DHT22;63678;47.994;7.854;2023-06-14T12:17:08;29.00;59.50
2453;DHT22;63678;47.994;7.854;2023-06-14T12:19:42;28.90;59.70
2453;DHT22;63678;47.994;7.854;2023-06-14T12:22:16;29.00;59.70
2453;DHT22;63678;47.994;7.854;2023-06-14T12:24:49;28.60;60.10
2453;DHT22;63678;47.994;7.854;2023-06-14T12:27:21;28.60;60.00
2453;DHT22;63678;47.994;7.854;2023-06-14T12:30:01;28.70;59.60
2453;DHT22;63678;47.994;7.854;2023-06-14T12:35:07;29.00;59.70
2453;DHT22;63678;47.994;7.854;2023-06-14T12:37:39;28.90;59.10
2453;DHT22;63678;47.994;7.854;2023-06-14T12:40:12;28.90;59.50
2453;DHT22;63678;47.994;7.854;2023-06-14T12:42:46;28.40;59.50
2453;DHT22;63678;47.994;7.854;2023-06-14T12:45:21;28.90;60.00
2453;DHT22;63678;47.994;7.854;2023-06-14T12:47:55;29.20;59.60
2453;DHT22;63678;47.994;7.854;2023-06-14T12:50:27;29.20;59.70
2453;DHT22;63678;47.994;7.854;2023-06-14T12:55:32;28.90;59.70
2453;DHT22;63678;47.994;7.854;2023-06-14T13:00:38;28.50;59.60
2453;DHT22;63678;47.994;7.854;2023-06-14T13:03:10;28.70;59.90
2453;DHT22;63678;47.994;7.854;2023-06-14T13:05:43;29.00;59.80
2453;DHT22;63678;47.994;7.854;2023-06-14T13:08:15;28.80;59.80
2453;DHT22;63678;47.994;7.854;2023-06-14T13:10:48;28.60;60.30
2453;DHT22;63678;47.994;7.854;2023-06-14T13:13:20;28.70;60.30
2453;DHT22;63678;47.994;7.854;2023-06-14T13:15:52;28.50;60.80
2453;DHT22;63678;47.994;7.854;2023-06-14T13:20:58;28.90;60.40
2453;DHT22;63678;47.994;7.854;2023-06-14T13:23:30;28.90;60.40
2453;DHT22;63678;47.994;7.854;2023-06-14T13:26:02;28.60;60.60
2453;DHT22;63678;47.994;7.854;2023-06-14T13:28:35;28.60;60.60
2453;DHT22;63678;47.994;7.854;2023-06-14T13:31:07;28.50;60.80
2453;DHT22;63678;47.994;7.854;2023-06-14T13:36:13;28.60;60.10
2453;DHT22;63678;47.994;7.854;2023-06-14T13:38:46;28.50;60.50
2453;DHT22;63678;47.994;7.854;2023-06-14T13:41:20;28.30;60.20
2453;DHT22;63678;47.994;7.854;2023-06-14T13:43:52;28.30;60.20
2453;DHT22;63678;47.994;7.854;2023-06-14T13:48:58;28.10;60.80
2453;DHT22;63678;47.994;7.854;2023-06-14T13:51:30;28.50;60.80
2453;DHT22;63678;47.994;7.854;2023-06-14T13:54:02;28.50;60.50
2453;DHT22;63678;47.994;7.854;2023-06-14T13:56:35;28.60;60.20
2453;DHT22;63678;47.994;7.854;2023-06-14T13:59:08;28.30;60.30
2453;DHT22;63678;47.994;7.854;2023-06-14T14:01:41;28.30;60.30
2453;DHT22;63678;47.994;7.854;2023-06-14T14:04:14;28.10;60.40
2453;DHT22;63678;47.994;7.854;2023-06-14T14:06:48;28.20;60.60
2453;DHT22;63678;47.994;7.854;2023-06-14T14:09:29;28.20;60.30
2453;DHT22;63678;47.994;7.854;2023-06-14T14:17:09;28.30;60.10
2453;DHT22;63678;47.994;7.854;2023-06-14T14:22:14;28.30;60.40
2453;DHT22;63678;47.994;7.854;2023-06-14T14:27:20;28.20;60.50
2453;DHT22;63678;47.994;7.854;2023-06-14T14:29:52;28.10;60.10
2453;DHT22;63678;47.994;7.854;2023-06-14T14:32:24;27.80;60.50
2453;DHT22;63678;47.994;7.854;2023-06-14T14:37:30;27.60;60.70
2453;DHT22;63678;47.994;7.854;2023-06-14T14:40:02;27.70;60.70
2453;DHT22;63678;47.994;7.854;2023-06-14T14:42:38;27.60;60.90
2453;DHT22;63678;47.994;7.854;2023-06-14T14:45:10;27.60;61.00
2453;DHT22;63678;47.994;7.854;2023-06-14T14:47:42;27.60;61.10
2453;DHT22;63678;47.994;7.854;2023-06-14T14:50:15;27.70;61.30
2453;DHT22;63678;47.994;7.854;2023-06-14T14:52:48;27.70;61.40
2453;DHT22;63678;47.994;7.854;2023-06-14T14:55:21;27.60;61.60
2453;DHT22;63678;47.994;7.854;2023-06-14T14:57:53;27.60;61.50
2453;DHT22;63678;47.994;7.854;2023-06-14T15:00:25;27.60;61.30
2453;DHT22;63678;47.994;7.854;2023-06-14T15:02:58;27.80;61.60
2453;DHT22;63678;47.994;7.854;2023-06-14T15:08:04;28.00;61.30
2453;DHT22;63678;47.994;7.854;2023-06-14T15:15:47;27.40;61.90
2453;DHT22;63678;47.994;7.854;2023-06-14T15:18:20;27.40;62.10
2453;DHT22;63678;47.994;7.854;2023-06-14T15:20:53;26.10;61.20
2453;DHT22;63678;47.994;7.854;2023-06-14T15:23:25;27.40;61.90
2453;DHT22;63678;47.994;7.854;2023-06-14T15:25:57;27.20;61.90
2453;DHT22;63678;47.994;7.854;2023-06-14T15:28:30;27.30;62.00
2453;DHT22;63678;47.994;7.854;2023-06-14T15:31:05;27.40;61.80
2453;DHT22;63678;47.994;7.854;2023-06-14T15:33:37;27.30;62.00
2453;DHT22;63678;47.994;7.854;2023-06-14T15:36:10;27.30;62.00
2453;DHT22;63678;47.994;7.854;2023-06-14T15:43:48;27.20;62.10
2453;DHT22;63678;47.994;7.854;2023-06-14T15:46:21;27.30;61.90
2453;DHT22;63678;47.994;7.854;2023-06-14T15:48:54;27.20;62.00
2453;DHT22;63678;47.994;7.854;2023-06-14T15:51:26;27.10;62.00
2453;DHT22;63678;47.994;7.854;2023-06-14T15:53:59;26.90;61.90
2453;DHT22;63678;47.994;7.854;2023-06-14T15:56:32;26.90;62.30
2453;DHT22;63678;47.994;7.854;2023-06-14T15:59:04;26.90;62.40
2453;DHT22;63678;47.994;7.854;2023-06-14T16:01:36;26.90;62.10
2453;DHT22;63678;47.994;7.854;2023-06-14T16:04:09;26.90;62.10
2453;DHT22;63678;47.994;7.854;2023-06-14T16:06:41;26.90;62.10
2453;DHT22;63678;47.994;7.854;2023-06-14T16:09:13;26.90;62.10
2453;DHT22;63678;47.994;7.854;2023-06-14T16:16:51;26.80;62.40
2453;DHT22;63678;47.994;7.854;2023-06-14T16:19:24;26.80;62.80
2453;DHT22;63678;47.994;7.854;2023-06-14T16:21:56;26.80;62.90
2453;DHT22;63678;47.994;7.854;2023-06-14T16:29:36;26.70;62.80
2453;DHT22;63678;47.994;7.854;2023-06-14T16:32:10;26.80;63.00
2453;DHT22;63678;47.994;7.854;2023-06-14T16:39:48;26.30;63.30
2453;DHT22;63678;47.994;7.854;2023-06-14T16:42:20;26.20;63.30
2453;DHT22;63678;47.994;7.854;2023-06-14T16:47:26;26.30;63.80
2453;DHT22;63678;47.994;7.854;2023-06-14T16:49:58;26.30;63.80
2453;DHT22;63678;47.994;7.854;2023-06-14T16:52:31;26.30;63.90
2453;DHT22;63678;47.994;7.854;2023-06-14T16:55:03;26.20;63.80
2453;DHT22;63678;47.994;7.854;2023-06-14T16:57:37;26.20;63.90
2453;DHT22;63678;47.994;7.854;2023-06-14T17:00:11;26.20;63.80
2453;DHT22;63678;47.994;7.854;2023-06-14T17:02:43;26.10;63.80
2453;DHT22;63678;47.994;7.854;2023-06-14T17:07:50;25.90;64.10
2453;DHT22;63678;47.994;7.854;2023-06-14T17:10:22;26.00;64.50
2453;DHT22;63678;47.994;7.854;2023-06-14T17:12:54;25.90;64.30
2453;DHT22;63678;47.994;7.854;2023-06-14T17:17:59;25.80;64.70
2453;DHT22;63678;47.994;7.854;2023-06-14T17:20:31;25.80;64.90
2453;DHT22;63678;47.994;7.854;2023-06-14T17:23:04;25.80;65.10
2453;DHT22;63678;47.994;7.854;2023-06-14T17:25:37;25.70;65.20
2453;DHT22;63678;47.994;7.854;2023-06-14T17:28:09;25.60;65.20
2453;DHT22;63678;47.994;7.854;2023-06-14T17:31:03;25.60;65.40
2453;DHT22;63678;47.994;7.854;2023-06-14T17:33:35;25.50;65.40
2453;DHT22;63678;47.994;7.854;2023-06-14T17:41:17;25.60;65.60
2453;DHT22;63678;47.994;7.854;2023-06-14T17:43:49;25.60;65.70
2453;DHT22;63678;47.994;7.854;2023-06-14T17:46:22;25.40;65.70
2453;DHT22;63678;47.994;7.854;2023-06-14T17:48:54;25.40;65.70
2453;DHT22;63678;47.994;7.854;2023-06-14T17:51:27;25.20;65.80
2453;DHT22;63678;47.994;7.854;2023-06-14T17:53:59;25.20;66.00
2453;DHT22;63678;47.994;7.854;2023-06-14T17:56:32;25.10;66.00
2453;DHT22;63678;47.994;7.854;2023-06-14T17:59:04;25.10;66.20
2453;DHT22;63678;47.994;7.854;2023-06-14T18:01:37;25.20;66.50
2453;DHT22;63678;47.994;7.854;2023-06-14T18:06:42;25.10;66.40
2453;DHT22;63678;47.994;7.854;2023-06-14T18:09:14;25.10;66.60
2453;DHT22;63678;47.994;7.854;2023-06-14T18:11:46;25.00;66.80
2453;DHT22;63678;47.994;7.854;2023-06-14T18:16:51;24.90;66.90
2453;DHT22;63678;47.994;7.854;2023-06-14T18:22:00;24.70;67.10
2453;DHT22;63678;47.994;7.854;2023-06-14T18:24:32;24.80;67.10
2453;DHT22;63678;47.994;7.854;2023-06-14T18:29:40;24.70;67.20
2453;DHT22;63678;47.994;7.854;2023-06-14T18:32:12;24.70;67.20
2453;DHT22;63678;47.994;7.854;2023-06-14T18:34:44;24.70;67.20
2453;DHT22;63678;47.994;7.854;2023-06-14T18:37:17;24.50;67.50
2453;DHT22;63678;47.994;7.854;2023-06-14T18:39:49;24.60;67.70
2453;DHT22;63678;47.994;7.854;2023-06-14T18:42:21;24.50;67.70
2453;DHT22;63678;47.994;7.854;2023-06-14T18:49:59;24.30;68.10
2453;DHT22;63678;47.994;7.854;2023-06-14T18:52:32;24.20;68.20
2453;DHT22;63678;47.994;7.854;2023-06-14T18:55:04;24.10;68.30
2453;DHT22;63678;47.994;7.854;2023-06-14T18:57:37;24.10;68.30
2453;DHT22;63678;47.994;7.854;2023-06-14T19:00:09;24.00;68.50
2453;DHT22;63678;47.994;7.854;2023-06-14T19:02:42;24.00;68.60
2453;DHT22;63678;47.994;7.854;2023-06-14T19:05:14;23.80;68.70
2453;DHT22;63678;47.994;7.854;2023-06-14T19:07:47;23.80;68.90
2453;DHT22;63678;47.994;7.854;2023-06-14T19:10:19;23.70;69.20
2453;DHT22;63678;47.994;7.854;2023-06-14T19:12:53;23.70;69.30
2453;DHT22;63678;47.994;7.854;2023-06-14T19:15:25;23.40;69.50
2453;DHT22;63678;47.994;7.854;2023-06-14T19:18:00;23.50;69.90
2453;DHT22;63678;47.994;7.854;2023-06-14T19:20:34;23.50;70.00
2453;DHT22;63678;47.994;7.854;2023-06-14T19:28:12;23.20;70.80
2453;DHT22;63678;47.994;7.854;2023-06-14T19:30:44;23.10;70.90